Main page
METAR-TAF:

METAR-TAF

Airports :

Ålesund Airport. Vigra

Ålesund, Norway

latitude: 62-34N, longitude: 006-07E, elevation: 2 m

Current weather observation

The report was made 7 minutes ago, at 22:20 UTC
Wind 11 kt from the West/Southwest
Temperature 5°C
Humidity 87%
Pressure 980 hPa
Visibility 10 km or more
Few clouds at a height of 3100 ft

METAR: ENAL 172220Z 24011KT 9999 FEW031 05/03 Q0980

Time: 23:27 (22:27 UTC)

Forecast

The report was made 5 hours and 27 minutes ago, at 17:00 UTC
Forecast valid from 17 at 18 UTC to 17 at 23 UTC
Wind 20 kt from the West/Southwest
Visibility 10 km or more
Few clouds at a height of 1500 ft, Towering cumulus.
Broken clouds at a height of 2500 ft
light rain showers
Temporary
from 17 at 18 UTC to 17 at 23 UTC
Visibility: 4000 m
Broken clouds at a height of 1400 ft, Cumulonimbus.
rain showers, small hail or snow pellets

TAF: ENAL 171700Z 1718/1723 24020KT 9999 -SHRA FEW015TCU BKN025 TEMPO 1718/1723 4000 SHRAGS BKN014CB

Weather observations and forecasts of more than 4000 airports (METAR and TAF reports).

The available stations are represented by yellow and red dots on the map.

Hover mouse over dot to see the name of the station.

Then click to see weather observations and forecasts.

To change the map : click on the green buttons with a black cross to zoom in, on the green button with a dash to zoom out, or on the green arrows for adjacent maps.


METAR-TAF: